Time;durP1;ratioP1;P1;durP2;ratioP2;P2;SDS_P1;SDS_P2;PMS_P1;PMS_P2;Temp;Humidity;BMP_temperature;BMP_pressure;BME280_temperature;BME280_humidity;BME280_pressure;Samples;Min_cycle;Max_cycle;Signal;HPM_P1;HPM_P2
2021/06/17 00:00:22;;;;;;;17.75;15.05;;;25.40;99.90;;;25.91;58.10;100870.03;5134702;27;20043;-66
2021/06/17 00:02:53;;;;;;;27.13;16.02;;;25.50;99.90;;;25.82;57.91;100870.63;5135345;27;20082;-67
2021/06/17 00:05:23;;;;;;;18.30;15.43;;;25.50;99.90;;;25.87;58.31;100876.63;5135070;27;20047;-66
2021/06/17 00:07:52;;;;;;;18.63;15.95;;;25.50;99.90;;;25.80;58.32;100864.44;5135167;27;20082;-66
2021/06/17 00:10:32;;;;;;;19.15;16.55;;;25.40;99.90;;;25.73;58.28;100863.13;5134620;27;20055;-66
2021/06/17 00:13:04;;;;;;;18.23;16.35;;;25.40;99.90;;;25.59;58.48;100856.91;5116261;27;20043;-66
2021/06/17 00:15:40;;;;;;;20.33;16.23;;;25.40;99.90;;;25.56;58.86;100859.78;5133635;27;20031;-66
2021/06/17 00:18:12;;;;;;;21.15;17.15;;;25.30;99.90;;;25.57;58.96;100864.25;5134844;27;20560;-66
2021/06/17 00:20:42;;;;;;;21.42;17.15;;;25.20;99.90;;;25.53;58.92;100874.41;5134827;27;20047;-66
2021/06/17 00:23:11;;;;;;;20.95;16.45;;;25.20;99.90;;;25.51;59.13;100868.22;5134991;27;20100;-66
2021/06/17 00:25:41;;;;;;;18.23;16.17;;;25.20;99.90;;;25.39;59.49;100874.47;5134275;27;20039;-67
2021/06/17 00:28:10;;;;;;;18.27;16.57;;;25.00;99.90;;;25.20;59.84;100860.34;5134695;27;20047;-66
2021/06/17 00:30:41;;;;;;;22.73;17.95;;;24.90;99.90;;;25.25;59.99;100850.06;5134596;27;20496;-67
2021/06/17 00:33:10;;;;;;;18.45;16.52;;;24.80;99.90;;;25.24;59.79;100851.03;5134662;27;20047;-66
2021/06/17 00:35:39;;;;;;;19.65;17.50;;;24.90;99.90;;;25.14;60.08;100852.63;5134481;27;20444;-66
2021/06/17 00:38:08;;;;;;;20.80;17.13;;;24.80;99.90;;;24.94;60.44;100828.66;5134783;27;20130;-66
2021/06/17 00:40:37;;;;;;;19.15;17.10;;;24.70;99.90;;;25.16;60.26;100849.81;5134142;27;20496;-66
2021/06/17 00:43:06;;;;;;;22.15;17.17;;;24.70;99.90;;;24.45;60.63;100752.41;5134363;27;20054;-66
2021/06/17 00:45:39;;;;;;;21.55;17.83;;;24.60;99.90;;;24.88;61.08;100846.16;5134046;27;20039;-66
2021/06/17 00:48:12;;;;;;;20.25;16.67;;;24.50;99.90;;;24.89;61.21;100837.06;5134262;27;20047;-66
2021/06/17 00:50:44;;;;;;;21.30;18.35;;;24.40;99.90;;;24.87;61.15;100843.56;5134336;27;20071;-66
2021/06/17 00:53:22;;;;;;;19.58;17.27;;;24.40;99.90;;;25.00;61.00;100839.09;5134285;27;20122;-66
2021/06/17 00:55:50;;;;;;;19.52;17.60;;;24.50;99.90;;;24.97;60.63;100839.31;5133894;27;20107;-66
2021/06/17 00:58:19;;;;;;;22.23;16.75;;;24.60;99.90;;;24.46;60.98;100756.88;5133834;27;20556;-66
2021/06/17 01:00:47;;;;;;;21.95;17.40;;;24.50;99.90;;;24.94;60.96;100834.06;5133575;27;20089;-66
2021/06/17 01:03:18;;;;;;;19.38;17.13;;;24.50;99.90;;;24.78;61.33;100831.47;5115577;27;20484;-67
2021/06/17 01:05:48;;;;;;;20.17;17.38;;;24.40;99.90;;;24.58;62.68;100830.97;5134049;27;20050;-66
2021/06/17 01:08:32;;;;;;;22.67;17.90;;;24.20;99.90;;;24.55;62.65;100823.03;5133765;27;20138;-66
2021/06/17 01:11:08;;;;;;;20.02;17.92;;;24.10;99.90;;;24.34;63.14;100814.44;5133776;27;20389;-66
2021/06/17 01:13:49;;;;;;;20.30;18.05;;;24.00;99.90;;;24.55;62.63;100820.31;5115571;28;20058;-66
2021/06/17 01:16:30;;;;;;;19.45;17.42;;;24.10;99.90;;;24.59;62.51;100830.00;5115571;28;20370;-66
2021/06/17 01:19:04;;;;;;;21.65;18.65;;;24.20;99.90;;;24.63;62.46;100836.94;5133987;28;20076;-66
2021/06/17 01:21:57;;;;;;;21.63;18.05;;;24.20;99.90;;;24.74;61.92;100834.47;5133577;28;20404;-66
2021/06/17 01:24:43;;;;;;;21.40;18.30;;;24.30;99.90;;;24.74;61.89;100826.34;5133822;28;20110;-66
2021/06/17 01:28:05;;;;;;;20.25;18.23;;;24.30;99.90;;;24.79;61.57;100830.53;5137417;27;20051;-66
2021/06/17 01:30:39;;;;;;;23.80;19.20;;;24.40;99.90;;;24.80;62.03;100843.06;5137940;27;20092;-66
2021/06/17 01:33:08;;;;;;;22.25;19.02;;;24.40;99.90;;;24.64;62.49;100823.31;5138101;27;20480;-66
2021/06/17 01:35:43;;;;;;;24.00;18.88;;;24.30;99.90;;;24.59;62.77;100819.16;5137990;27;20130;-66
2021/06/17 01:38:19;;;;;;;23.08;19.70;;;24.20;99.90;;;24.65;62.74;100821.50;5137812;27;20100;-66
2021/06/17 01:40:50;;;;;;;21.75;19.45;;;24.30;99.90;;;24.57;62.86;100823.81;5137586;27;20055;-66
2021/06/17 01:43:21;;;;;;;24.98;20.60;;;24.20;99.90;;;24.64;62.55;100811.66;5119417;27;20053;-66
2021/06/17 01:45:51;;;;;;;22.77;20.38;;;24.20;99.90;;;24.63;62.48;100812.59;5137993;27;20066;-66
2021/06/17 01:48:21;;;;;;;21.33;19.13;;;24.30;99.90;;;24.66;62.46;100807.00;5137489;27;20043;-66
2021/06/17 01:50:51;;;;;;;25.17;20.33;;;24.30;99.90;;;24.64;62.62;100804.38;5137981;27;20484;-66
2021/06/17 01:53:24;;;;;;;23.48;20.67;;;24.30;99.90;;;24.62;62.95;100794.66;5137852;27;20047;-66
2021/06/17 01:55:58;;;;;;;24.20;21.27;;;24.20;99.90;;;24.59;62.86;100789.41;5137676;27;20031;-66
2021/06/17 01:58:29;;;;;;;22.67;20.30;;;24.20;99.90;;;24.60;62.96;100789.31;5137649;27;20055;-66
2021/06/17 02:01:02;;;;;;;24.67;20.95;;;24.30;99.90;;;24.51;63.22;100797.13;5137353;27;20043;-65
2021/06/17 02:03:33;;;;;;;24.20;21.55;;;24.20;99.90;;;24.46;63.35;100778.50;5137473;27;20050;-66
2021/06/17 02:06:02;;;;;;;24.27;21.77;;;24.10;99.90;;;24.55;63.03;100783.34;5137451;27;20047;-66
2021/06/17 02:08:31;;;;;;;24.38;20.90;;;24.20;99.90;;;24.37;63.65;100775.53;5118889;27;20400;-66
2021/06/17 02:11:00;;;;;;;26.30;21.73;;;24.00;99.90;;;24.42;63.65;100773.38;5137031;27;20454;-66
2021/06/17 02:13:33;;;;;;;31.15;22.33;;;24.00;99.90;;;24.39;63.31;100773.59;5136974;27;20047;-66
2021/06/17 02:16:05;;;;;;;25.10;22.50;;;24.10;99.90;;;24.50;63.17;100773.78;5137323;27;20051;-66
2021/06/17 02:18:35;;;;;;;25.63;22.30;;;24.10;99.90;;;24.17;63.32;100717.28;5137279;27;20051;-66
2021/06/17 02:21:05;;;;;;;;;;;24.10;99.90;;;24.44;63.22;100768.75;5119210;27;20442;-66
2021/06/17 02:23:36;;;;;;;24.13;21.57;;;24.10;99.90;;;24.40;63.42;100772.59;5137255;27;19923;-68
2021/06/17 02:26:08;;;;;;;24.67;21.88;;;24.00;99.90;;;24.31;63.78;100774.06;5137098;27;20078;-67
2021/06/17 02:28:43;;;;;;;25.05;22.50;;;23.90;99.90;;;24.27;63.65;100763.53;5118571;27;20446;-67
2021/06/17 02:31:15;;;;;;;26.27;23.05;;;23.90;99.90;;;24.25;63.81;100771.75;5118516;27;20477;-67
2021/06/17 02:33:47;;;;;;;25.85;23.08;;;23.80;99.90;;;24.27;63.88;100768.94;5118530;27;20055;-67
2021/06/17 02:36:22;;;;;;;24.80;22.20;;;23.90;99.90;;;24.38;63.40;100771.84;5136939;27;20524;-67
2021/06/17 02:38:52;;;;;;;25.63;22.92;;;23.90;99.90;;;24.39;63.47;100766.31;5135397;27;20397;-67
2021/06/17 02:41:21;;;;;;;25.35;22.77;;;24.00;99.90;;;24.13;64.08;100759.00;5136703;27;20373;-67
2021/06/17 02:43:55;;;;;;;26.23;22.25;;;23.80;99.90;;;24.01;64.28;100757.00;5136720;27;20043;-67
2021/06/17 02:46:24;;;;;;;25.48;22.73;;;23.70;99.90;;;24.00;64.55;100760.69;5136663;27;20077;-67
2021/06/17 02:48:53;;;;;;;24.90;22.23;;;23.60;99.90;;;23.89;64.91;100737.00;5118143;27;20066;-67
2021/06/17 02:51:23;;;;;;;24.92;22.50;;;23.50;99.90;;;23.90;64.87;100744.16;5136280;27;20060;-67
2021/06/17 02:53:52;;;;;;;26.02;23.15;;;23.50;99.90;;;23.51;65.45;100716.84;5136536;27;20122;-67
2021/06/17 02:56:26;;;;;;;25.77;23.02;;;23.30;99.90;;;23.54;65.53;100711.25;5136425;27;20035;-67
2021/06/17 02:59:13;;;;;;;26.55;23.77;;;23.20;99.90;;;23.58;65.57;100734.41;5136226;27;20046;-67
2021/06/17 03:01:49;;;;;;;25.85;23.05;;;23.20;99.90;;;23.70;64.83;100738.22;5117733;27;20055;-67
2021/06/17 03:04:24;;;;;;;26.13;22.33;;;23.20;99.90;;;23.67;64.92;100725.78;5136111;27;20047;-67
2021/06/17 03:06:53;;;;;;;28.25;23.50;;;23.20;99.90;;;23.56;64.41;100708.47;5136305;27;20088;-67
2021/06/17 03:09:27;;;;;;;29.10;24.25;;;23.20;99.90;;;23.71;64.83;100724.59;5117773;27;20078;-67
2021/06/17 03:11:59;;;;;;;27.52;23.40;;;23.30;99.90;;;23.65;64.57;100703.41;5136208;27;20108;-67
2021/06/17 03:14:36;;;;;;;26.63;23.60;;;23.30;99.90;;;23.34;64.39;100644.09;5136398;27;20055;-67
2021/06/17 03:17:07;;;;;;;28.45;22.27;;;23.40;99.90;;;23.86;64.04;100742.63;5136189;27;20051;-67
2021/06/17 03:19:37;;;;;;;31.80;23.63;;;23.40;99.90;;;23.88;63.93;100770.41;5117564;27;20116;-67
2021/06/17 03:22:09;;;;;;;28.40;22.58;;;23.40;99.90;;;23.96;63.67;100745.63;5135717;27;20484;-67
2021/06/17 03:24:40;;;;;;;26.70;23.45;;;23.50;99.90;;;23.93;63.39;100751.19;5117617;27;20051;-67
2021/06/17 03:27:10;;;;;;;25.02;22.40;;;23.50;99.90;;;23.69;63.24;100710.31;5136191;27;20055;-67
2021/06/17 03:29:47;;;;;;;26.00;23.33;;;23.50;99.90;;;24.07;62.94;100738.63;5135865;27;20053;-67
2021/06/17 03:32:18;;;;;;;28.13;22.33;;;23.70;99.90;;;24.21;62.44;100739.59;5135756;27;20403;-67
2021/06/17 03:34:49;;;;;;;27.35;24.48;;;23.80;99.90;;;23.64;62.43;100630.53;5135788;27;20043;-67
2021/06/17 03:37:20;;;;;;;30.17;22.77;;;23.80;99.90;;;24.20;62.52;100729.75;5135747;27;20047;-67
2021/06/17 03:39:53;;;;;;;25.90;23.17;;;23.80;99.90;;;24.16;62.71;100729.91;5135423;27;20112;-67
2021/06/17 03:42:23;;;;;;;25.75;22.77;;;23.80;99.90;;;24.16;62.46;100737.16;5117126;27;20035;-67
2021/06/17 03:44:55;;;;;;;25.65;22.20;;;23.80;99.90;;;24.18;62.29;100741.50;5117071;27;20047;-67
2021/06/17 03:47:25;;;;;;;25.05;22.13;;;23.70;99.90;;;24.27;61.79;100741.91;5135494;27;20050;-67
2021/06/17 03:49:56;;;;;;;27.83;21.90;;;23.80;99.90;;;24.27;61.61;100741.91;5134938;27;20499;-67
2021/06/17 03:52:25;;;;;;;27.10;21.35;;;23.80;99.90;;;24.33;61.21;100733.41;5116948;27;20058;-67
2021/06/17 03:54:57;;;;;;;23.65;20.77;;;23.90;99.90;;;24.29;61.12;100730.03;5135412;27;20062;-67
2021/06/17 03:57:25;;;;;;;;;;;23.90;99.90;;;24.35;61.17;100724.22;5135371;27;20078;-67
2021/06/17 03:59:59;;;;;;;24.88;21.27;;;23.90;99.90;;;24.36;60.86;100728.66;5135145;27;20342;-67
2021/06/17 04:02:30;;;;;;;28.27;20.73;;;23.90;99.90;;;24.45;60.24;100727.22;5134667;27;20509;-67
2021/06/17 04:04:58;;;;;;;22.67;20.33;;;24.10;99.90;;;24.46;60.70;100726.25;5134843;27;20057;-67
2021/06/17 04:07:28;;;;;;;23.25;20.15;;;24.00;99.90;;;24.52;60.18;100729.44;5135066;27;20080;-67
2021/06/17 04:10:01;;;;;;;20.77;18.58;;;24.10;99.90;;;24.43;59.92;100739.97;5135074;27;20051;-67
2021/06/17 04:12:31;;;;;;;21.35;19.23;;;24.00;99.90;;;24.42;60.26;100736.41;5134704;27;20039;-67
2021/06/17 04:15:05;;;;;;;21.20;18.90;;;24.00;99.90;;;24.45;60.01;100732.63;5134703;27;20035;-67
2021/06/17 04:17:38;;;;;;;21.98;18.25;;;24.00;99.90;;;24.58;59.47;100726.34;5134887;27;20112;-67
2021/06/17 04:20:13;;;;;;;19.15;17.15;;;24.10;99.90;;;24.36;59.60;100696.22;5134822;27;20051;-67
2021/06/17 04:22:46;;;;;;;22.17;18.17;;;24.10;99.90;;;24.63;58.98;100715.22;5134434;27;20554;-67
2021/06/17 04:25:18;;;;;;;20.92;18.77;;;24.20;99.90;;;24.51;59.43;100697.06;5134478;27;20054;-67
2021/06/17 04:27:50;;;;;;;20.58;18.33;;;24.20;99.90;;;24.55;59.76;100704.00;5134401;27;20046;-67
2021/06/17 04:30:21;;;;;;;21.85;16.77;;;24.20;99.90;;;24.54;59.52;100703.16;5116164;27;20089;-67
2021/06/17 04:32:51;;;;;;;24.48;17.75;;;24.10;99.90;;;23.91;59.59;100621.59;5116248;27;20078;-67
2021/06/17 04:35:21;;;;;;;17.88;16.02;;;24.10;99.90;;;24.40;59.51;100719.41;5134524;27;20051;-67
2021/06/17 04:37:51;;;;;;;22.65;16.58;;;24.00;99.90;;;24.34;59.29;100689.16;5134227;27;20114;-67
2021/06/17 04:40:23;;;;;;;22.37;16.27;;;23.90;99.90;;;24.56;58.60;100708.47;5134168;27;20090;-67
2021/06/17 04:42:57;;;;;;;18.77;15.88;;;24.10;99.90;;;24.67;58.53;100695.97;5134183;27;20043;-67
2021/06/17 04:45:29;;;;;;;18.00;15.27;;;24.20;99.90;;;24.79;58.36;100721.41;5134080;27;20127;-67
2021/06/17 04:48:00;;;;;;;18.20;15.13;;;24.40;99.90;;;24.70;58.52;100694.91;5116056;27;20044;-67
2021/06/17 04:50:29;;;;;;;18.05;14.77;;;24.30;99.90;;;24.73;58.68;100706.44;5134282;27;20043;-68
2021/06/17 04:53:13;;;;;;;17.15;14.95;;;24.30;99.90;;;24.74;58.31;100700.03;5134305;27;20656;-67
2021/06/17 04:55:45;;;;;;;22.40;13.98;;;24.30;99.90;;;24.93;58.78;100699.72;5115679;27;20115;-68
2021/06/17 04:58:14;;;;;;;18.77;14.35;;;24.40;99.90;;;24.97;58.28;100703.97;5134052;27;20039;-67
2021/06/17 05:00:45;;;;;;;16.88;14.60;;;24.60;99.90;;;24.97;58.46;100712.09;5133542;27;20091;-67
2021/06/17 05:03:14;;;;;;;17.15;13.32;;;24.50;99.90;;;24.37;58.52;100615.97;5115323;27;20059;-67
2021/06/17 05:05:43;;;;;;;14.93;12.55;;;24.50;99.90;;;24.97;58.79;100718.34;5133712;27;20489;-69
2021/06/17 05:10:59;;;;;;;16.05;13.15;;;24.70;99.90;;;25.29;58.25;100724.31;5133799;27;20092;-68
2021/06/17 05:13:31;;;;;;;16.48;13.23;;;24.80;99.90;;;25.32;58.36;100718.69;5115675;27;20047;-67
2021/06/17 05:16:03;;;;;;;18.25;13.45;;;24.80;99.90;;;25.41;58.76;100726.25;5133866;27;20554;-67
2021/06/17 05:18:32;;;;;;;15.88;12.07;;;24.90;99.90;;;25.25;59.47;100722.78;5133801;28;20047;-67
2021/06/17 05:21:00;;;;;;;15.68;12.68;;;24.80;99.90;;;25.31;59.68;100733.22;5133996;28;20039;-67
2021/06/17 05:23:29;;;;;;;16.70;12.50;;;24.80;99.90;;;25.25;59.77;100706.53;5115478;28;20101;-67
2021/06/17 05:25:59;;;;;;;15.23;12.50;;;24.90;99.90;;;25.44;59.88;100735.97;5133418;28;20039;-67
2021/06/17 05:28:29;;;;;;;15.52;11.95;;;24.90;99.90;;;25.60;60.34;100731.25;5115707;28;20047;-67
2021/06/17 05:31:01;;;;;;;15.83;12.17;;;25.00;99.90;;;25.52;59.73;100717.38;5115405;28;20043;-67
2021/06/17 05:33:31;;;;;;;13.15;11.82;;;25.10;99.90;;;25.59;59.30;100726.84;5133576;28;20476;-67
2021/06/17 05:36:01;;;;;;;15.88;11.80;;;25.10;99.90;;;25.66;60.08;100725.44;5133701;28;20043;-67
2021/06/17 05:38:33;;;;;;;13.68;11.80;;;25.20;99.90;;;25.66;59.97;100717.28;5115287;28;20047;-67
2021/06/17 05:41:02;;;;;;;12.88;10.77;;;25.20;99.90;;;25.84;59.55;100718.75;5133797;28;20043;-67
2021/06/17 05:43:31;;;;;;;23.15;12.05;;;25.30;99.90;;;25.94;58.91;100709.84;5133423;28;20118;-67
2021/06/17 05:46:01;;;;;;;14.65;11.10;;;25.40;99.90;;;26.06;58.61;100716.28;5133595;28;20560;-67
2021/06/17 05:48:30;;;;;;;14.48;10.20;;;25.60;99.90;;;26.14;58.59;100721.16;5133752;28;20092;-67
2021/06/17 05:51:00;;;;;;;13.38;10.80;;;25.70;99.90;;;26.23;59.14;100720.50;5133723;28;20054;-67
2021/06/17 05:53:32;;;;;;;13.07;9.90;;;25.70;99.90;;;26.22;58.07;100718.75;5115022;28;20043;-67
2021/06/17 05:56:01;;;;;;;12.20;9.70;;;25.80;99.90;;;25.98;57.33;100685.25;5133294;28;20043;-67
2021/06/17 05:58:30;;;;;;;15.65;10.23;;;25.70;99.90;;;26.22;57.40;100721.47;5115281;28;20047;-67
2021/06/17 06:01:00;;;;;;;14.18;10.85;;;25.70;99.90;;;26.48;57.34;100725.91;5133419;28;20133;-66
2021/06/17 06:03:29;;;;;;;10.93;9.82;;;25.90;99.90;;;26.47;56.68;100741.31;5133343;28;20077;-67
2021/06/17 06:05:57;;;;;;;12.13;9.98;;;26.00;99.90;;;26.59;55.87;100747.69;5133535;28;20082;-67
2021/06/17 06:08:26;;;;;;;13.55;9.43;;;26.20;99.90;;;26.55;56.12;100762.47;5133112;28;20039;-67
2021/06/17 06:10:54;;;;;;;11.95;9.00;;;26.10;99.90;;;26.51;55.31;100782.66;5114948;28;20138;-67
2021/06/17 06:13:23;;;;;;;12.90;8.60;;;26.10;99.90;;;26.31;54.16;100807.63;5136407;27;20039;-68
2021/06/17 06:15:52;;;;;;;12.27;9.73;;;26.00;99.90;;;26.28;55.46;100802.41;5136953;27;20442;-68
2021/06/17 06:18:25;;;;;;;12.45;9.32;;;25.90;99.90;;;26.21;54.99;100809.25;5137141;27;20122;-68
2021/06/17 06:20:57;;;;;;;11.20;9.65;;;25.90;99.90;;;25.77;54.41;100706.56;5137184;27;20073;-68
2021/06/17 06:23:26;;;;;;;11.70;9.40;;;26.00;99.90;;;26.28;54.90;100803.28;5137122;27;20111;-67
2021/06/17 06:25:55;;;;;;;16.90;10.23;;;26.00;99.90;;;26.41;54.89;100811.41;5137166;27;20070;-68
2021/06/17 06:28:26;;;;;;;13.27;9.80;;;26.00;99.90;;;26.50;54.67;100825.19;5137159;27;20080;-68
2021/06/17 06:30:55;;;;;;;14.90;8.90;;;26.10;99.90;;;26.66;54.30;100827.69;5136746;27;20084;-68
2021/06/17 06:33:25;;;;;;;30.67;9.85;;;26.20;99.90;;;26.70;54.88;100834.69;5118445;27;20032;-68
2021/06/17 06:35:54;;;;;;;14.93;8.70;;;26.30;99.90;;;26.64;53.70;100830.53;5136892;27;20043;-68
2021/06/17 06:38:22;;;;;;;15.18;8.73;;;26.30;99.90;;;26.83;54.88;100840.94;5136764;27;20042;-68
2021/06/17 06:40:52;;;;;;;13.65;8.65;;;26.40;99.90;;;26.91;54.97;100838.56;5136428;27;20039;-68
2021/06/17 06:43:21;;;;;;;19.90;8.80;;;26.50;99.90;;;26.83;55.05;100819.22;5118181;27;20104;-68
2021/06/17 06:45:50;;;;;;;21.07;7.57;;;26.40;99.90;;;26.92;55.95;100851.16;5118251;27;20450;-68
2021/06/17 06:48:19;;;;;;;25.63;8.07;;;26.50;99.90;;;26.96;57.05;100858.13;5136264;27;20067;-68
2021/06/17 06:50:49;;;;;;;18.98;7.55;;;26.50;99.90;;;26.95;57.22;100837.34;5136258;27;20515;-68
2021/06/17 06:53:17;;;;;;;21.90;7.32;;;26.50;99.90;;;26.92;57.38;100855.72;5118125;27;20059;-68
2021/06/17 06:55:46;;;;;;;13.85;6.82;;;26.50;99.90;;;26.95;57.96;100853.66;5136387;27;20043;-68
2021/06/17 06:58:15;;;;;;;15.35;7.43;;;26.50;99.90;;;26.87;58.34;100849.78;5136170;27;20043;-68
2021/06/17 07:00:44;;;;;;;21.45;7.55;;;26.40;99.90;;;26.85;58.84;100858.00;5136418;27;20054;-68
2021/06/17 07:03:14;;;;;;;11.00;6.73;;;26.30;99.90;;;26.72;59.07;100871.59;5136581;27;20055;-69
2021/06/17 07:05:42;;;;;;;20.27;7.45;;;26.30;99.90;;;26.61;59.39;100857.91;5136312;27;20296;-68
2021/06/17 07:08:14;;;;;;;10.63;6.70;;;26.20;99.90;;;26.55;59.59;100843.88;5117431;27;20066;-69
2021/06/17 07:10:46;;;;;;;15.50;6.78;;;26.20;99.90;;;26.75;59.96;100867.81;5117730;27;20484;-68
2021/06/17 07:13:15;;;;;;;13.15;6.50;;;26.20;99.90;;;26.73;59.60;100838.03;5136234;27;20050;-69
2021/06/17 07:15:43;;;;;;;17.30;5.93;;;26.30;99.90;;;26.92;59.50;100844.88;5136117;27;20047;-68
2021/06/17 07:18:13;;;;;;;11.00;6.45;;;26.40;99.90;;;27.09;59.00;100825.50;5136068;27;20070;-68
2021/06/17 07:20:41;;;;;;;10.38;5.68;;;26.60;99.90;;;27.13;58.43;100830.59;5117476;27;20543;-68
2021/06/17 07:23:10;;;;;;;12.70;5.28;;;26.60;99.90;;;27.17;58.28;100836.66;5135477;27;20051;-68
2021/06/17 07:25:40;;;;;;;10.65;5.97;;;26.70;99.90;;;27.18;58.43;100849.25;5135640;27;20046;-68
2021/06/17 07:28:09;;;;;;;12.15;6.40;;;26.80;99.90;;;27.05;58.86;100865.59;5117451;27;20118;-68
2021/06/17 07:30:37;;;;;;;10.68;6.10;;;26.70;99.90;;;27.10;59.12;100887.84;5135833;27;20071;-68
2021/06/17 07:33:07;;;;;;;11.93;6.28;;;26.70;99.90;;;27.08;59.80;100897.94;5117533;27;20058;-68
2021/06/17 07:35:36;;;;;;;18.85;7.00;;;26.60;99.90;;;27.25;59.33;100894.91;5117304;27;20108;-68
2021/06/17 07:38:04;;;;;;;10.80;6.65;;;26.70;99.90;;;27.28;59.21;100877.47;5135590;27;20416;-68
2021/06/17 07:40:33;;;;;;;9.48;6.70;;;26.80;99.90;;;27.37;59.42;100845.09;5135571;27;20076;-68
2021/06/17 07:43:03;;;;;;;12.00;7.40;;;26.90;99.90;;;27.43;58.73;100831.06;5135594;27;20043;-69
2021/06/17 07:45:34;;;;;;;11.10;6.55;;;27.00;99.90;;;27.33;58.33;100818.28;5135567;27;20063;-68
2021/06/17 07:48:04;;;;;;;10.35;6.75;;;26.90;99.90;;;27.39;58.97;100825.97;5135283;27;20133;-68
2021/06/17 07:50:32;;;;;;;8.80;6.10;;;27.00;99.90;;;27.39;58.91;100824.09;5116969;27;20054;-68
2021/06/17 07:53:01;;;;;;;11.10;6.53;;;26.90;99.90;;;27.69;57.90;100810.06;5135389;27;20080;-68
2021/06/17 07:55:29;;;;;;;10.90;6.70;;;27.20;99.90;;;27.85;57.63;100809.75;5135162;27;20400;-68
2021/06/17 07:57:58;;;;;;;10.15;5.60;;;27.40;99.90;;;27.88;57.34;100798.63;5135316;27;20046;-68
2021/06/17 08:00:29;;;;;;;11.93;6.53;;;27.50;99.90;;;27.81;57.46;100797.38;5134898;27;20047;-68
2021/06/17 08:02:59;;;;;;;10.35;6.03;;;27.50;99.90;;;27.73;57.24;100764.47;5116522;27;20496;-68
2021/06/17 08:05:28;;;;;;;7.03;5.78;;;27.40;99.90;;;27.71;57.21;100780.03;5134851;27;20442;-68
2021/06/17 08:07:56;;;;;;;9.05;6.15;;;27.30;99.90;;;27.83;57.62;100773.66;5134867;27;20043;-68
2021/06/17 08:10:25;;;;;;;11.38;5.95;;;27.30;99.90;;;27.88;57.23;100763.28;5134750;27;20042;-68
2021/06/17 08:12:54;;;;;;;9.45;6.13;;;27.50;99.90;;;27.99;57.42;100771.53;5116401;27;20068;-68
2021/06/17 08:15:23;;;;;;;10.77;6.28;;;27.60;99.90;;;28.01;57.51;100755.94;5135154;27;20484;-68
2021/06/17 08:17:54;;;;;;;9.80;6.30;;;27.60;99.90;;;28.01;57.45;100753.22;5134874;27;20058;-68
2021/06/17 08:20:22;;;;;;;12.48;6.40;;;27.50;99.90;;;28.15;56.62;100747.53;5134818;27;20047;-68
2021/06/17 08:22:51;;;;;;;8.77;6.00;;;27.70;99.90;;;28.20;56.28;100787.00;5134653;27;20071;-68
2021/06/17 08:25:20;;;;;;;9.38;6.57;;;27.80;99.90;;;28.10;55.78;100756.09;5134597;27;20047;-68
2021/06/17 08:27:48;;;;;;;8.70;5.97;;;27.80;99.90;;;28.09;56.10;100753.47;5134312;27;20549;-68
2021/06/17 08:30:19;;;;;;;7.43;5.68;;;27.70;99.90;;;28.18;55.70;100761.81;5116231;27;20446;-68
2021/06/17 08:32:49;;;;;;;9.77;5.60;;;27.80;99.90;;;28.08;55.68;100746.31;5134792;27;20066;-68
2021/06/17 08:35:19;;;;;;;10.02;5.90;;;27.70;99.90;;;28.21;55.75;100741.63;5133772;27;20043;-68
2021/06/17 08:37:47;;;;;;;8.55;5.53;;;27.80;99.90;;;28.25;55.37;100727.66;5134580;27;20100;-68
2021/06/17 08:40:16;;;;;;;12.57;5.97;;;27.90;99.90;;;28.19;54.58;100721.84;5134764;27;20051;-68
2021/06/17 08:42:45;;;;;;;9.98;5.97;;;27.80;99.90;;;28.15;54.63;100736.66;5134255;27;20051;-68
2021/06/17 08:45:14;;;;;;;16.48;6.05;;;27.80;99.90;;;27.94;54.47;100736.50;5134409;27;20118;-68
2021/06/17 08:47:45;;;;;;;9.48;5.53;;;27.70;99.90;;;27.64;56.07;100737.00;5134519;27;20039;-68
2021/06/17 08:50:15;;;;;;;;;;;27.30;99.90;;;27.85;56.22;100699.13;5134802;27;20043;-68
2021/06/17 08:52:46;;;;;;;8.77;5.70;;;27.50;99.90;;;27.98;56.14;100729.84;5115501;27;19919;-68
2021/06/17 08:55:21;;;;;;;8.95;5.75;;;27.50;99.90;;;28.04;55.94;100739.38;5134182;27;20047;-68
2021/06/17 08:57:54;;;;;;;15.18;5.63;;;27.60;99.90;;;28.01;56.35;100737.75;5134487;27;20435;-68
2021/06/17 09:00:38;;;;;;;9.80;5.35;;;27.60;99.90;;;28.10;55.25;100752.50;5134165;27;20055;-68
2021/06/17 09:03:09;;;;;;;9.75;5.50;;;27.60;99.90;;;28.10;54.70;100758.81;5133794;27;20047;-67
2021/06/17 09:05:42;;;;;;;10.70;5.50;;;27.70;99.90;;;28.13;55.51;100754.97;5133866;27;20054;-68
2021/06/17 09:08:14;;;;;;;10.00;5.43;;;27.70;99.90;;;28.17;55.33;100772.78;5133927;27;20373;-68
2021/06/17 09:10:44;;;;;;;11.60;6.45;;;27.70;99.90;;;28.16;55.63;100782.81;5133813;27;20051;-68
2021/06/17 09:13:13;;;;;;;19.00;6.63;;;27.70;99.90;;;27.15;58.79;100754.41;5115571;27;20039;-66
2021/06/17 09:15:45;;;;;;;17.70;6.80;;;27.00;99.90;;;27.02;59.49;100778.03;5133781;27;20070;-66
2021/06/17 09:18:18;;;;;;;10.80;7.07;;;26.60;99.90;;;27.04;61.50;100785.06;5133742;27;20430;-66
2021/06/17 09:20:54;;;;;;;11.32;7.43;;;26.40;99.90;;;26.84;63.50;100779.38;5133870;28;20031;-66
2021/06/17 09:23:34;;;;;;;10.32;6.47;;;26.50;99.90;;;26.98;64.26;100774.69;5134193;28;20047;-66
2021/06/17 09:26:07;;;;;;;8.75;6.55;;;26.60;99.90;;;26.67;63.37;100796.88;5134185;28;20044;-66
2021/06/17 09:28:52;;;;;;;12.40;6.90;;;26.30;99.90;;;26.74;62.18;100790.03;5133733;28;20043;-66
2021/06/17 09:31:23;;;;;;;12.00;6.45;;;26.30;99.90;;;26.75;61.52;100803.50;5115431;28;20047;-66
2021/06/17 09:33:54;;;;;;;9.48;6.90;;;26.40;99.90;;;26.57;63.60;100803.94;5115375;28;20058;-66
2021/06/17 09:36:23;;;;;;;;;;;26.20;99.90;;;26.48;63.90;100826.31;5133974;28;20484;-66
2021/06/17 09:38:55;;;;;;;14.00;7.30;;;26.00;99.90;;;26.00;63.12;100722.09;5133471;28;19973;-66
2021/06/17 09:41:37;;;;;;;13.80;7.80;;;26.10;99.90;;;26.86;63.46;100837.16;5115528;28;20066;-66
2021/06/17 09:44:08;;;;;;;14.30;6.93;;;26.40;99.90;;;26.82;61.80;100816.63;5133804;28;20109;-66
2021/06/17 09:46:36;;;;;;;9.77;6.65;;;26.40;99.90;;;26.90;60.78;100828.69;5134295;27;20058;-67
2021/06/17 09:49:07;;;;;;;9.50;7.05;;;26.50;99.90;;;27.09;60.31;100839.94;5119266;27;20082;-67
2021/06/17 09:51:43;;;;;;;13.20;7.22;;;26.60;99.90;;;26.84;61.28;100842.69;5119576;27;20047;-67
2021/06/17 09:54:25;;;;;;;11.07;5.75;;;26.50;99.90;;;26.75;61.60;100832.53;5137399;27;20092;-67
2021/06/17 09:57:00;;;;;;;12.98;6.53;;;26.40;99.90;;;26.45;60.29;100835.53;5137778;27;20043;-66
2021/06/17 09:59:41;;;;;;;12.70;6.80;;;26.10;99.90;;;26.58;60.84;100839.09;5137895;27;20043;-67
2021/06/17 10:02:17;;;;;;;11.85;6.85;;;26.20;99.90;;;26.90;60.01;100846.81;5137215;27;20054;-66
2021/06/17 10:04:46;;;;;;;14.55;6.60;;;26.40;99.90;;;26.92;58.96;100829.44;5119189;27;20059;-67
2021/06/17 10:07:17;;;;;;;15.07;7.22;;;26.50;99.90;;;26.99;58.94;100854.28;5137428;27;20108;-66
2021/06/17 10:09:48;;;;;;;10.95;6.18;;;26.60;99.90;;;27.36;58.84;100858.81;5137054;27;20043;-66
2021/06/17 10:12:20;;;;;;;13.77;5.90;;;26.90;99.90;;;27.62;58.36;100857.75;5119067;27;20511;-67
2021/06/17 10:14:49;;;;;;;13.82;6.97;;;27.20;99.90;;;27.69;58.67;100864.44;5137401;27;20057;-66
2021/06/17 10:17:19;;;;;;;10.52;6.63;;;27.30;99.90;;;28.07;58.05;100856.09;5137241;27;20043;-66
2021/06/17 10:19:48;;;;;;;14.85;7.60;;;27.60;99.90;;;28.20;58.78;100873.22;5137267;27;20049;-66
2021/06/17 10:22:17;;;;;;;13.02;6.35;;;27.90;99.90;;;28.04;57.25;100859.94;5136904;27;20051;-69